Time;durP1;ratioP1;P1;durP2;ratioP2;P2;SDS_P1;SDS_P2;PMS_P1;PMS_P2;Temp;Humidity;BMP_temperature;BMP_pressure;BME280_temperature;BME280_humidity;BME280_pressure;Samples;Min_cycle;Max_cycle;Signal;HPM_P1;HPM_P2
2021/03/03 00:00:00;;;;;;;;;;;;;;;21.48;35.16;102684.00;3108363;27;113784;-61
2021/03/03 00:01:31;;;;;;;;;;;;;;;21.48;35.13;102677.53;3118695;27;114201;-61
2021/03/03 00:03:03;;;;;;;;;;;;;;;21.46;35.12;102683.41;3117262;27;113923;-61
2021/03/03 00:04:35;;;;;;;;;;;;;;;21.46;35.03;102679.75;3108235;28;113990;-61
2021/03/03 00:06:06;;;;;;;;;;;;;;;21.44;35.08;102674.41;3109119;27;114223;-60
2021/03/03 00:07:37;;;;;;;;;;;;;;;21.42;35.38;102671.03;3114431;27;113839;-60
2021/03/03 00:09:08;;;;;;;;;;;;;;;21.41;35.35;102676.91;3119111;27;115443;-61
2021/03/03 00:10:40;;;;;;;;;;;;;;;21.39;35.38;102674.41;3106473;28;113745;-60
2021/03/03 00:12:11;;;;;;;;;;;;;;;21.38;35.29;102666.22;3101833;28;115963;-60
2021/03/03 00:13:42;;;;;;;;;;;;;;;21.36;35.47;102668.44;3098762;28;115915;-61
2021/03/03 00:15:14;;;;;;;;;;;;;;;21.35;35.51;102664.78;3105994;28;115590;-59
2021/03/03 00:16:45;;;;;;;;;;;;;;;21.33;35.31;102666.19;3116675;27;115047;-61
2021/03/03 00:18:17;;;;;;;;;;;;;;;21.30;35.68;102673.22;3120985;27;115578;-60
2021/03/03 00:19:48;;;;;;;;;;;;;;;21.31;35.38;102672.06;3118193;27;113912;-62
2021/03/03 00:21:19;;;;;;;;;;;;;;;21.29;35.53;102677.13;3114826;27;115580;-60
2021/03/03 00:22:50;;;;;;;;;;;;;;;21.27;35.75;102677.41;3118326;27;115327;-60
2021/03/03 00:24:21;;;;;;;;;;;;;;;21.24;35.35;102671.47;3119654;27;115168;-60
2021/03/03 00:25:53;;;;;;;;;;;;;;;21.24;35.78;102674.28;3120662;27;115047;-60
2021/03/03 00:27:24;;;;;;;;;;;;;;;21.22;35.52;102673.69;3121960;27;116571;-59
2021/03/03 00:29:14;;;;;;;;;;;;;;;21.20;35.77;102681.56;3123384;27;115993;-60
2021/03/03 00:30:45;;;;;;;;;;;;;;;21.18;35.81;102684.66;3121788;27;117577;-60
2021/03/03 00:32:17;;;;;;;;;;;;;;;21.18;36.07;102678.19;3122622;27;115732;-60
2021/03/03 00:33:49;;;;;;;;;;;;;;;21.15;35.74;102685.19;3108346;28;115246;-61
2021/03/03 00:35:20;;;;;;;;;;;;;;;21.12;36.02;102677.25;3107471;28;115769;-60
2021/03/03 00:36:51;;;;;;;;;;;;;;;21.12;35.86;102682.06;3104420;28;115870;-61
2021/03/03 00:38:22;;;;;;;;;;;;;;;21.12;36.15;102682.06;3101028;28;116518;-60
2021/03/03 00:39:53;;;;;;;;;;;;;;;21.09;35.79;102680.63;3113927;27;115879;-61
2021/03/03 00:41:24;;;;;;;;;;;;;;;21.08;36.20;102686.50;3108249;28;115869;-61
2021/03/03 00:42:56;;;;;;;;;;;;;;;21.07;36.00;102680.06;3118029;27;115832;-60
2021/03/03 00:44:27;;;;;;;;;;;;;;;21.06;36.06;102680.31;3106470;28;115672;-60
2021/03/03 00:45:59;;;;;;;;;;;;;;;21.04;35.95;102679.72;3117810;27;116014;-60
2021/03/03 00:47:31;;;;;;;;;;;;;;;21.03;36.01;102676.06;3093319;28;115655;-60
2021/03/03 00:49:03;;;;;;;;;;;;;;;21.01;36.07;102685.91;3114657;27;117462;-60
2021/03/03 00:50:34;;;;;;;;;;;;;;;20.99;36.32;102676.88;3123864;27;114821;-61
2021/03/03 00:52:05;;;;;;;;;;;;;;;20.99;36.07;102677.72;3114235;28;115722;-60
2021/03/03 00:53:36;;;;;;;;;;;;;;;20.97;36.01;102673.50;3118429;27;113945;-60
2021/03/03 00:55:08;;;;;;;;;;;;;;;20.95;36.37;102681.34;3124382;27;114236;-61
2021/03/03 00:56:39;;;;;;;;;;;;;;;20.94;36.38;102671.25;3096115;28;113898;-60
2021/03/03 00:58:10;;;;;;;;;;;;;;;20.93;36.15;102667.59;3112653;27;115568;-60
2021/03/03 00:59:42;;;;;;;;;;;;;;;20.91;36.13;102667.00;3116598;27;113876;-60
2021/03/03 01:01:13;;;;;;;;;;;;;;;20.91;36.17;102664.19;3112165;27;113797;-59
2021/03/03 01:02:44;;;;;;;;;;;;;;;20.87;36.65;102663.03;3117983;27;113923;-60
2021/03/03 01:04:16;;;;;;;;;;;;;;;20.87;36.01;102663.03;3119142;27;113919;-62
2021/03/03 01:05:47;;;;;;;;;;;;;;;20.82;36.43;102665.78;3108509;28;114326;-59
2021/03/03 01:07:18;;;;;;;;;;;;;;;20.77;36.45;102668.56;3107699;27;113872;-59
2021/03/03 01:08:49;;;;;;;;;;;;;;;20.75;36.67;102668.84;3108714;28;114376;-60
2021/03/03 01:10:21;;;;;;;;;;;;;;;20.73;36.49;102662.63;3104586;28;113976;-61
2021/03/03 01:11:52;;;;;;;;;;;;;;;20.72;36.25;102669.34;3114900;27;113925;-60
2021/03/03 01:13:23;;;;;;;;;;;;;;;20.71;36.56;102666.84;3127303;27;113786;-60
2021/03/03 01:14:54;;;;;;;;;;;;;;;20.69;36.37;102663.44;3123559;27;115325;-60
2021/03/03 01:16:26;;;;;;;;;;;;;;;20.67;36.63;102663.69;3106238;28;114466;-60
2021/03/03 01:18:00;;;;;;;;;;;;;;;20.75;36.79;102657.63;3103308;28;115571;-60
2021/03/03 01:19:32;;;;;;;;;;;;;;;20.77;36.66;102646.09;3104972;28;114022;-60
2021/03/03 01:21:03;;;;;;;;;;;;;;;20.75;36.90;102645.53;3120535;27;115246;-59
2021/03/03 01:22:34;;;;;;;;;;;;;;;20.72;36.83;102649.69;3123935;27;114056;-60
2021/03/03 01:24:06;;;;;;;;;;;;;;;20.72;37.21;102643.22;3110736;28;115075;-59
2021/03/03 01:25:38;;;;;;;;;;;;;;;20.69;37.19;102644.63;3118706;27;115134;-59
2021/03/03 01:27:10;;;;;;;;;;;;;;;20.69;37.22;102635.34;3098397;28;115117;-59
2021/03/03 01:28:41;;;;;;;;;;;;;;;20.69;37.29;102639.00;3101961;28;115213;-59
2021/03/03 01:30:13;;;;;;;;;;;;;;;20.67;37.25;102643.22;3116974;27;115177;-59
2021/03/03 01:31:44;;;;;;;;;;;;;;;20.63;37.57;102645.69;3123789;27;115571;-59
2021/03/03 01:33:25;;;;;;;;;;;;;;;20.63;37.35;102640.06;3107685;28;115023;-59
2021/03/03 01:34:56;;;;;;;;;;;;;;;20.63;37.36;102642.03;3124895;27;115232;-59
2021/03/03 01:36:27;;;;;;;;;;;;;;;20.59;37.43;102644.53;3092197;28;114658;-60
2021/03/03 01:37:59;;;;;;;;;;;;;;;20.60;37.41;102649.03;3087888;28;115687;-60
2021/03/03 01:39:31;;;;;;;;;;;;;;;20.59;37.42;102658.56;3116143;27;115858;-60
2021/03/03 01:41:02;;;;;;;;;;;;;;;20.58;37.17;102656.88;3108363;28;115813;-60
2021/03/03 01:42:33;;;;;;;;;;;;;;;20.59;37.32;102658.56;3119108;27;114745;-59
2021/03/03 01:44:04;;;;;;;;;;;;;;;20.59;37.29;102652.09;3104447;28;115520;-60
2021/03/03 01:45:36;;;;;;;;;;;;;;;20.57;37.51;102665.59;3106672;28;116677;-60
2021/03/03 01:47:07;;;;;;;;;;;;;;;20.55;37.46;102665.84;3119810;27;117468;-59
2021/03/03 01:48:38;;;;;;;;;;;;;;;20.53;37.70;102664.44;3119193;27;115763;-59
2021/03/03 01:50:11;;;;;;;;;;;;;;;20.53;37.56;102662.47;3109109;28;115792;-59
2021/03/03 01:51:42;;;;;;;;;;;;;;;20.53;37.62;102659.66;3119746;27;115754;-59
2021/03/03 01:53:14;;;;;;;;;;;;;;;20.51;37.36;102652.59;3107565;28;115782;-59
2021/03/03 01:54:45;;;;;;;;;;;;;;;20.48;37.56;102658.75;3104004;28;114560;-60
2021/03/03 01:56:16;;;;;;;;;;;;;;;20.47;37.54;102649.50;3121515;27;115836;-60
2021/03/03 01:57:49;;;;;;;;;;;;;;;20.46;37.60;102653.41;3109979;28;113971;-60
2021/03/03 01:59:20;;;;;;;;;;;;;;;20.46;37.51;102647.78;3105403;28;114043;-59
2021/03/03 02:00:51;;;;;;;;;;;;;;;20.46;37.66;102646.94;3118253;27;114245;-60
2021/03/03 02:02:24;;;;;;;;;;;;;;;20.43;37.50;102637.09;3107348;28;114115;-59
2021/03/03 02:03:56;;;;;;;;;;;;;;;20.43;37.75;102642.72;3114513;27;113854;-60
2021/03/03 02:05:28;;;;;;;;;;;;;;;20.43;37.44;102637.09;3109981;28;114315;-59
2021/03/03 02:07:03;;;;;;;;;;;;;;;20.41;37.52;102630.88;3105775;28;113853;-60
2021/03/03 02:08:38;;;;;;;;;;;;;;;20.39;37.58;102631.19;3119013;27;113846;-59
2021/03/03 02:10:18;;;;;;;;;;;;;;;20.39;37.87;102628.38;3108255;28;113717;-60
2021/03/03 02:11:59;;;;;;;;;;;;;;;20.39;37.68;102630.34;3104755;28;113890;-60
2021/03/03 02:13:32;;;;;;;;;;;;;;;20.37;37.69;102638.16;3107595;28;113753;-61
2021/03/03 02:15:05;;;;;;;;;;;;;;;20.36;37.73;102626.06;3100271;28;113893;-59
2021/03/03 02:16:37;;;;;;;;;;;;;;;20.38;37.93;102634.25;3105013;28;114112;-60
2021/03/03 02:18:10;;;;;;;;;;;;;;;20.36;38.07;102619.59;3118572;27;114364;-60
2021/03/03 02:19:42;;;;;;;;;;;;;;;20.35;37.99;102610.34;3113222;28;113856;-61
2021/03/03 02:21:18;;;;;;;;;;;;;;;20.32;38.18;102610.03;3110907;28;115239;-61
2021/03/03 02:22:50;;;;;;;;;;;;;;;20.32;38.04;102612.84;3111717;28;115200;-60
2021/03/03 02:24:22;;;;;;;;;;;;;;;20.32;37.95;102624.91;3107260;28;115153;-60
2021/03/03 02:25:54;;;;;;;;;;;;;;;20.31;38.03;102637.25;3114726;27;114978;-59
2021/03/03 02:27:25;;;;;;;;;;;;;;;20.28;38.10;102640.56;3116292;27;115052;-60
2021/03/03 02:28:57;;;;;;;;;;;;;;;20.30;38.30;102631.94;3109474;27;115291;-61
2021/03/03 02:30:43;;;;;;;;;;;;;;;20.26;37.88;102628.75;3100965;28;115148;-60
2021/03/03 02:32:17;;;;;;;;;;;;;;;20.28;38.14;102634.09;3103101;28;115298;-60
2021/03/03 02:33:49;;;;;;;;;;;;;;;20.27;38.20;102629.59;3111846;27;115071;-60
2021/03/03 02:35:20;;;;;;;;;;;;;;;20.25;38.00;102631.84;3106250;28;115215;-60
2021/03/03 02:36:52;;;;;;;;;;;;;;;20.24;38.13;102635.75;3112510;27;115118;-59
2021/03/03 02:38:25;;;;;;;;;;;;;;;20.24;38.15;102632.94;3098410;28;115207;-61
2021/03/03 02:39:57;;;;;;;;;;;;;;;20.21;38.42;102631.53;3111132;27;115133;-60
2021/03/03 02:41:30;;;;;;;;;;;;;;;20.22;38.26;102629.53;3127049;27;115248;-60
2021/03/03 02:43:01;;;;;;;;;;;;;;;20.20;38.55;102629.84;3120123;27;116375;-61
2021/03/03 02:44:32;;;;;;;;;;;;;;;20.21;38.50;102620.31;3109671;28;115261;-60
2021/03/03 02:46:05;;;;;;;;;;;;;;;20.19;38.41;102613.25;3117005;27;115668;-61
2021/03/03 02:47:37;;;;;;;;;;;;;;;20.19;38.26;102611.28;3105482;28;115702;-60
2021/03/03 02:49:09;;;;;;;;;;;;;;;20.18;38.26;102608.75;3106779;28;116996;-61
2021/03/03 02:50:40;;;;;;;;;;;;;;;20.17;38.17;102609.88;3106326;28;114807;-60
2021/03/03 02:52:12;;;;;;;;;;;;;;;20.15;38.35;102601.72;3106501;28;115818;-60
2021/03/03 02:53:43;;;;;;;;;;;;;;;20.17;38.37;102602.28;3104892;28;116290;-61
2021/03/03 02:55:15;;;;;;;;;;;;;;;20.14;38.41;102593.53;3119896;27;114686;-60
2021/03/03 02:56:47;;;;;;;;;;;;;;;20.13;38.57;102587.09;3123939;27;115807;-60
2021/03/03 02:58:20;;;;;;;;;;;;;;;20.14;38.57;102593.53;3117788;27;115672;-60
2021/03/03 02:59:55;;;;;;;;;;;;;;;20.12;38.60;102584.56;3120433;27;115728;-61
2021/03/03 03:01:26;;;;;;;;;;;;;;;20.11;38.37;102571.63;3121181;27;115927;-60
2021/03/03 03:03:07;;;;;;;;;;;;;;;20.11;38.40;102577.25;3107818;28;116635;-60
2021/03/03 03:04:39;;;;;;;;;;;;;;;20.10;38.46;102575.56;3116070;27;114314;-60
2021/03/03 03:06:16;;;;;;;;;;;;;;;20.09;38.56;102579.47;3106442;28;113766;-59
2021/03/03 03:07:49;;;;;;;;;;;;;;;20.07;38.49;102581.72;3110176;27;113781;-60
2021/03/03 03:09:23;;;;;;;;;;;;;;;20.05;38.53;102581.97;3123451;27;115758;-60
2021/03/03 03:10:55;;;;;;;;;;;;;;;20.06;38.45;102588.41;3122328;27;113869;-60
2021/03/03 03:12:29;;;;;;;;;;;;;;;20.07;38.65;102592.94;3097708;28;113844;-60
2021/03/03 03:14:04;;;;;;;;;;;;;;;20.05;38.53;102595.13;3106720;28;114035;-60
2021/03/03 03:15:35;;;;;;;;;;;;;;;20.03;38.89;102589.81;3108250;28;113929;-60
2021/03/03 03:17:07;;;;;;;;;;;;;;;20.03;38.55;102592.63;3091230;28;114000;-60
2021/03/03 03:18:45;;;;;;;;;;;;;;;20.01;38.53;102594.81;3100801;28;114054;-59
2021/03/03 03:20:17;;;;;;;;;;;;;;;20.00;38.68;102590.31;3098364;28;114159;-59
2021/03/03 03:21:50;;;;;;;;;;;;;;;19.98;38.72;102587.81;3107878;27;114185;-60
2021/03/03 03:23:22;;;;;;;;;;;;;;;19.99;38.77;102594.22;3102398;28;113848;-59
2021/03/03 03:24:55;;;;;;;;;;;;;;;19.97;38.83;102597.31;3093391;28;114337;-60
2021/03/03 03:26:27;;;;;;;;;;;;;;;19.96;39.00;102609.66;3091492;28;115045;-61
2021/03/03 03:27:59;;;;;;;;;;;;;;;19.97;39.06;102599.28;3103610;28;114993;-59
2021/03/03 03:29:31;;;;;;;;;;;;;;;19.92;39.06;102602.88;3094065;28;115208;-60
2021/03/03 03:31:17;;;;;;;;;;;;;;;19.93;38.72;102592.50;3121064;27;115443;-60
2021/03/03 03:32:48;;;;;;;;;;;;;;;19.93;38.86;102592.50;3122097;27;115589;-60
2021/03/03 03:34:20;;;;;;;;;;;;;;;19.93;38.82;102598.97;3109715;28;115049;-60
2021/03/03 03:35:51;;;;;;;;;;;;;;;19.91;38.97;102594.72;3109842;28;114838;-59
2021/03/03 03:37:24;;;;;;;;;;;;;;;19.91;39.00;102603.13;3117795;27;114085;-61
2021/03/03 03:38:55;;;;;;;;;;;;;;;19.89;38.97;102602.56;3115153;27;115213;-60
2021/03/03 03:40:27;;;;;;;;;;;;;;;19.89;39.13;102605.38;3118883;27;114050;-60
2021/03/03 03:41:58;;;;;;;;;;;;;;;19.91;38.96;102605.94;3122836;27;115078;-61
2021/03/03 03:43:31;;;;;;;;;;;;;;;19.87;39.12;102597.22;3122049;27;115291;-61
2021/03/03 03:45:04;;;;;;;;;;;;;;;19.87;38.97;102616.84;3097401;28;115161;-61
2021/03/03 03:46:35;;;;;;;;;;;;;;;19.87;39.17;102607.56;3123008;27;115027;-61
2021/03/03 03:48:07;;;;;;;;;;;;;;;19.85;39.26;102609.81;3108511;28;116081;-60
2021/03/03 03:49:39;;;;;;;;;;;;;;;19.85;39.18;102610.63;3117456;27;116537;-61
2021/03/03 03:51:10;;;;;;;;;;;;;;;19.83;39.28;102610.06;3123086;27;115707;-60
2021/03/03 03:52:42;;;;;;;;;;;;;;;19.84;39.13;102620.19;3122829;27;115721;-60
2021/03/03 03:54:13;;;;;;;;;;;;;;;19.82;39.39;102611.16;3117170;27;114419;-60
2021/03/03 03:55:44;;;;;;;;;;;;;;;19.83;39.08;102612.03;3119470;27;115394;-59
2021/03/03 03:57:16;;;;;;;;;;;;;;;19.79;39.02;102617.31;3121013;27;115839;-59
2021/03/03 03:58:47;;;;;;;;;;;;;;;19.78;39.39;102620.38;3106044;28;116146;-60
2021/03/03 04:00:19;;;;;;;;;;;;;;;19.78;39.42;102624.03;3114508;27;115127;-59
2021/03/03 04:01:51;;;;;;;;;;;;;;;19.79;39.15;102611.72;3114645;27;115489;-60
2021/03/03 04:03:22;;;;;;;;;;;;;;;19.78;39.24;102617.56;3108714;28;114773;-60
2021/03/03 04:04:54;;;;;;;;;;;;;;;19.77;39.14;102613.06;3113080;27;116319;-59
2021/03/03 04:06:25;;;;;;;;;;;;;;;19.79;39.39;102614.50;3101776;28;115870;-60
2021/03/03 04:07:56;;;;;;;;;;;;;;;19.77;39.09;102610.25;3106858;28;115837;-60
2021/03/03 04:09:27;;;;;;;;;;;;;;;19.75;39.38;102609.69;3100707;28;114415;-60
2021/03/03 04:10:59;;;;;;;;;;;;;;;19.74;39.39;102611.66;3106591;28;113931;-59
2021/03/03 04:12:30;;;;;;;;;;;;;;;19.74;39.17;102617.25;3106442;28;114288;-59
2021/03/03 04:14:01;;;;;;;;;;;;;;;19.73;39.26;102609.94;3109017;28;113788;-59
2021/03/03 04:15:32;;;;;;;;;;;;;;;19.73;39.25;102611.91;3107853;27;113959;-61
2021/03/03 04:17:03;;;;;;;;;;;;;;;19.71;39.23;102611.34;3121621;27;114183;-60
2021/03/03 04:18:35;;;;;;;;;;;;;;;19.71;39.25;102611.34;3105455;28;113927;-60
2021/03/03 04:20:13;;;;;;;;;;;;;;;19.71;39.34;102617.78;3114035;27;113821;-59
2021/03/03 04:21:44;;;;;;;;;;;;;;;19.69;39.46;102620.00;3118283;27;114087;-58
2021/03/03 04:23:15;;;;;;;;;;;;;;;19.68;39.42;102615.50;3107641;28;113832;-60
2021/03/03 04:24:46;;;;;;;;;;;;;;;19.67;39.26;102604.56;3107656;28;113890;-60
2021/03/03 04:26:17;;;;;;;;;;;;;;;19.68;39.57;102609.88;3106988;28;114057;-59
2021/03/03 04:27:48;;;;;;;;;;;;;;;19.65;39.53;102607.63;3121283;27;113751;-60
2021/03/03 04:29:19;;;;;;;;;;;;;;;19.65;39.57;102612.38;3120100;27;113959;-60
2021/03/03 04:30:50;;;;;;;;;;;;;;;19.65;39.62;102612.38;3128041;27;113957;-62
2021/03/03 04:32:21;;;;;;;;;;;;;;;19.65;39.50;102620.78;3121116;27;114472;-59
2021/03/03 04:33:53;;;;;;;;;;;;;;;19.62;39.46;102627.78;3121981;27;115477;-59
2021/03/03 04:35:24;;;;;;;;;;;;;;;19.60;39.52;102621.56;3117959;27;115256;-60
2021/03/03 04:36:55;;;;;;;;;;;;;;;19.62;39.40;102630.56;3117105;27;114057;-61
2021/03/03 04:38:26;;;;;;;;;;;;;;;19.61;39.40;102616.81;3115641;27;115283;-60
2021/03/03 04:39:56;;;;;;;;;;;;;;;19.62;39.54;102618.50;3109511;28;114015;-60
2021/03/03 04:41:28;;;;;;;;;;;;;;;19.58;39.71;102620.97;3109720;27;114567;-60
2021/03/03 04:42:58;;;;;;;;;;;;;;;19.58;39.44;102623.78;3110495;28;114056;-60
2021/03/03 04:44:30;;;;;;;;;;;;;;;19.57;39.54;102622.09;3114100;27;114041;-61
2021/03/03 04:46:01;;;;;;;;;;;;;;;19.60;39.54;102626.31;3108043;28;115670;-60
2021/03/03 04:47:32;;;;;;;;;;;;;;;19.54;39.83;102622.59;3120261;27;115343;-60
2021/03/03 04:49:04;;;;;;;;;;;;;;;19.57;39.61;102619.28;3109771;28;115786;-60
2021/03/03 04:50:35;;;;;;;;;;;;;;;19.56;39.77;102620.41;3113817;27;115086;-60
2021/03/03 04:52:06;;;;;;;;;;;;;;;19.56;39.66;102625.16;3118530;27;115014;-61
2021/03/03 04:53:37;;;;;;;;;;;;;;;19.53;39.91;102618.13;3088377;28;116274;-60
2021/03/03 04:55:08;;;;;;;;;;;;;;;19.52;39.97;102622.03;3106252;28;116021;-60
2021/03/03 04:56:39;;;;;;;;;;;;;;;19.52;39.99;102614.47;3123014;27;114524;-60
2021/03/03 04:58:10;;;;;;;;;;;;;;;19.52;39.76;102610.81;3117526;27;116005;-60
2021/03/03 04:59:41;;;;;;;;;;;;;;;19.50;39.81;102610.22;3107952;28;116121;-60
2021/03/03 05:01:12;;;;;;;;;;;;;;;19.49;40.18;102611.31;3115961;27;115725;-60
2021/03/03 05:02:45;;;;;;;;;;;;;;;19.51;40.05;102618.38;3115216;27;114620;-61
2021/03/03 05:04:16;;;;;;;;;;;;;;;19.49;40.14;102614.97;3125375;27;115686;-61
2021/03/03 05:05:47;;;;;;;;;;;;;;;19.47;40.27;102608.78;3120142;27;115740;-61
2021/03/03 05:07:18;;;;;;;;;;;;;;;19.47;40.32;102610.75;3090645;28;116721;-60
2021/03/03 05:08:49;;;;;;;;;;;;;;;19.48;40.24;102602.09;3112837;27;115041;-62
2021/03/03 05:10:20;;;;;;;;;;;;;;;19.47;40.33;102605.13;3118647;27;115684;-61
2021/03/03 05:11:51;;;;;;;;;;;;;;;19.48;40.26;102609.66;3101989;28;115732;-61
2021/03/03 05:13:26;;;;;;;;;;;;;;;19.49;40.21;102619.72;3108873;28;115657;-61
2021/03/03 05:14:57;;;;;;;;;;;;;;;19.56;40.45;102613.94;3106061;28;113716;-62
2021/03/03 05:16:28;;;;;;;;;;;;;;;19.60;40.41;102609.50;3118537;27;113790;-61
2021/03/03 05:17:59;;;;;;;;;;;;;;;19.64;40.60;102617.13;3121709;27;113907;-61
2021/03/03 05:19:30;;;;;;;;;;;;;;;19.65;40.19;102621.63;3122018;27;113921;-61
2021/03/03 05:21:01;;;;;;;;;;;;;;;19.67;40.61;102622.19;3109997;28;113731;-61
2021/03/03 05:22:32;;;;;;;;;;;;;;;19.68;40.50;102626.72;3107478;28;113829;-61
2021/03/03 05:24:04;;;;;;;;;;;;;;;19.71;40.67;102630.97;3108297;28;114033;-60
2021/03/03 05:25:35;;;;;;;;;;;;;;;19.75;40.64;102623.72;3105412;28;113921;-61
2021/03/03 05:27:06;;;;;;;;;;;;;;;19.77;40.60;102618.69;3119962;27;113896;-61
2021/03/03 05:28:37;;;;;;;;;;;;;;;19.81;40.61;102631.06;3110121;28;113983;-60
2021/03/03 05:30:08;;;;;;;;;;;;;;;19.84;40.96;102623.00;3115452;27;114427;-60
2021/03/03 05:31:40;;;;;;;;;;;;;;;19.87;41.17;102628.06;3114002;27;113769;-61
2021/03/03 05:33:11;;;;;;;;;;;;;;;19.91;41.72;102623.63;3123393;27;113816;-60
2021/03/03 05:34:42;;;;;;;;;;;;;;;19.95;41.35;102619.16;3124813;27;113960;-60
2021/03/03 05:36:14;;;;;;;;;;;;;;;20.01;41.64;102622.03;3115502;27;113775;-59
2021/03/03 05:37:45;;;;;;;;;;;;;;;20.05;41.29;102634.41;3120960;27;115119;-59
2021/03/03 05:39:16;;;;;;;;;;;;;;;20.08;41.36;102626.31;3124402;27;115123;-60
2021/03/03 05:40:47;;;;;;;;;;;;;;;20.13;41.43;102631.13;3120293;27;115048;-60
2021/03/03 05:42:19;;;;;;;;;;;;;;;20.18;41.17;102634.00;3107817;28;115227;-61
2021/03/03 05:43:50;;;;;;;;;;;;;;;20.23;41.14;102631.25;3119689;27;115123;-60
2021/03/03 05:45:22;;;;;;;;;;;;;;;20.27;40.90;102635.22;3123197;27;115218;-59
2021/03/03 05:46:53;;;;;;;;;;;;;;;20.32;40.71;102626.88;3112388;28;115062;-61
2021/03/03 05:48:26;;;;;;;;;;;;;;;20.36;40.50;102619.59;3099392;28;115863;-60
2021/03/03 05:50:00;;;;;;;;;;;;;;;20.40;40.43;102615.16;3094607;28;115101;-60
2021/03/03 05:51:32;;;;;;;;;;;;;;;20.44;40.38;102607.91;3106978;28;115747;-60
2021/03/03 05:53:03;;;;;;;;;;;;;;;20.49;40.20;102607.94;3120253;27;115650;-60
2021/03/03 05:54:34;;;;;;;;;;;;;;;20.53;40.31;102597.03;3123896;27;115069;-61
2021/03/03 05:56:06;;;;;;;;;;;;;;;20.57;40.34;102598.19;3124291;27;115638;-61
2021/03/03 05:57:37;;;;;;;;;;;;;;;20.62;40.23;102599.09;3114058;28;115087;-60
2021/03/03 05:59:10;;;;;;;;;;;;;;;20.67;40.10;102603.91;3120126;27;115666;-61
2021/03/03 06:00:42;;;;;;;;;;;;;;;20.70;40.13;102601.38;3122306;27;115622;-60
2021/03/03 06:02:14;;;;;;;;;;;;;;;20.74;40.23;102608.16;3119193;27;115775;-60
2021/03/03 06:03:45;;;;;;;;;;;;;;;20.79;39.60;102599.78;3122706;27;115678;-60
2021/03/03 06:05:17;;;;;;;;;;;;;;;20.82;39.75;102599.22;3118012;27;115684;-61
2021/03/03 06:06:48;;;;;;;;;;;;;;;20.85;39.66;102595.00;3117342;27;115856;-59
2021/03/03 06:08:20;;;;;;;;;;;;;;;20.89;39.45;102593.38;3120919;27;115781;-60
2021/03/03 06:09:51;;;;;;;;;;;;;;;20.92;39.31;102592.81;3105189;28;115779;-60
2021/03/03 06:11:22;;;;;;;;;;;;;;;20.97;39.32;102590.06;3103399;28;116116;-60
2021/03/03 06:12:53;;;;;;;;;;;;;;;21.01;39.08;102594.00;3110928;27;115730;-62
2021/03/03 06:14:24;;;;;;;;;;;;;;;21.04;39.40;102587.84;3124325;27;115739;-59
2021/03/03 06:15:55;;;;;;;;;;;;;;;21.07;39.25;102578.88;3124206;27;115937;-60
2021/03/03 06:17:27;;;;;;;;;;;;;;;21.11;38.99;102573.56;3114011;27;115701;-61
2021/03/03 06:18:59;;;;;;;;;;;;;;;21.14;39.16;102570.22;3104568;28;115699;-61
2021/03/03 06:20:36;;;;;;;;;;;;;;;21.17;38.97;102564.03;3105969;28;114545;-60
2021/03/03 06:22:17;;;;;;;;;;;;;;;21.21;38.94;102556.78;3095008;28;113875;-60
2021/03/03 06:23:57;;;;;;;;;;;;;;;21.24;39.00;102557.06;3115960;27;113815;-61
2021/03/03 06:25:28;;;;;;;;;;;;;;;21.28;38.88;102562.97;3097401;28;113769;-61
2021/03/03 06:27:02;;;;;;;;;;;;;;;21.32;38.95;102574.50;3111196;27;113946;-61
2021/03/03 06:28:34;;;;;;;;;;;;;;;21.35;38.92;102572.00;3087069;28;114193;-60
2021/03/03 06:30:06;;;;;;;;;;;;;;;21.39;38.68;102566.69;3092751;28;113652;-61
2021/03/03 06:31:38;;;;;;;;;;;;;;;21.42;38.84;102578.22;3093458;28;113890;-59
2021/03/03 06:33:09;;;;;;;;;;;;;;;21.46;38.51;102567.25;3115689;27;113835;-60
2021/03/03 06:34:48;;;;;;;;;;;;;;;21.48;38.93;102570.66;3120741;27;113945;-60
2021/03/03 06:36:28;;;;;;;;;;;;;;;21.51;38.56;102559.69;3109415;28;115596;-60
2021/03/03 06:37:59;;;;;;;;;;;;;;;21.53;38.67;102571.50;3109696;28;113821;-60
2021/03/03 06:39:31;;;;;;;;;;;;;;;21.58;38.50;102574.34;3113991;27;113763;-61
2021/03/03 06:41:06;;;;;;;;;;;;;;;21.61;38.16;102578.59;3122560;27;113665;-59
2021/03/03 06:42:37;;;;;;;;;;;;;;;21.63;38.37;102577.16;3118764;27;115001;-59
2021/03/03 06:44:08;;;;;;;;;;;;;;;21.67;38.35;102578.31;3116773;27;116621;-60
2021/03/03 06:45:39;;;;;;;;;;;;;;;21.69;38.31;102587.34;3117149;27;114335;-60
2021/03/03 06:47:10;;;;;;;;;;;;;;;21.72;38.32;102586.75;3115528;27;115111;-61
2021/03/03 06:48:42;;;;;;;;;;;;;;;21.74;38.09;102592.97;3124629;27;115090;-60
2021/03/03 06:50:13;;;;;;;;;;;;;;;21.78;37.86;102586.78;3099627;28;115046;-62
2021/03/03 06:51:45;;;;;;;;;;;;;;;21.81;37.76;102597.47;3108078;28;115879;-61
2021/03/03 06:53:29;;;;;;;;;;;;;;;21.84;38.23;102591.31;3124939;27;114038;-61
2021/03/03 06:55:01;;;;;;;;;;;;;;;21.86;37.72;102592.72;3108697;28;115216;-60
2021/03/03 06:56:34;;;;;;;;;;;;;;;21.89;37.92;102602.59;3118674;27;115054;-61
2021/03/03 06:58:22;;;;;;;;;;;;;;;21.92;38.13;102591.63;3123751;27;118506;-60
2021/03/03 06:59:56;;;;;;;;;;;;;;;21.95;38.00;102596.72;3109435;28;115083;-59
2021/03/03 07:01:33;;;;;;;;;;;;;;;21.98;37.81;102606.59;3118312;27;114199;-62
2021/03/03 07:03:21;;;;;;;;;;;;;;;22.01;37.78;102598.41;3123438;27;116300;-60
2021/03/03 07:04:55;;;;;;;;;;;;;;;22.03;37.58;102601.78;3123180;27;114384;-60
2021/03/03 07:06:31;;;;;;;;;;;;;;;22.05;37.60;102609.97;3094059;28;115733;-59
2021/03/03 07:08:03;;;;;;;;;;;;;;;22.08;37.84;102607.44;3112463;27;114635;-60
2021/03/03 07:09:38;;;;;;;;;;;;;;;22.10;37.50;102610.81;3119891;27;115725;-60
2021/03/03 07:11:19;;;;;;;;;;;;;;;22.13;37.69;102610.25;3115223;27;114592;-59
2021/03/03 07:12:50;;;;;;;;;;;;;;;22.15;37.57;102613.66;3123153;27;114444;-61
2021/03/03 07:14:21;;;;;;;;;;;;;;;22.18;37.72;102615.91;3117685;27;114588;-60
2021/03/03 07:16:01;;;;;;;;;;;;;;;22.20;37.70;102615.63;3122898;27;116545;-60
2021/03/03 07:17:33;;;;;;;;;;;;;;;22.24;38.05;102613.09;3123047;27;115909;-60
2021/03/03 07:19:18;;;;;;;;;;;;;;;22.27;38.00;102612.53;3110479;28;114364;-59
2021/03/03 07:20:49;;;;;;;;;;;;;;;22.29;37.61;102618.72;3118493;27;115715;-61
2021/03/03 07:22:30;;;;;;;;;;;;;;;22.31;37.62;102624.91;3120601;27;115632;-61
2021/03/03 07:24:01;;;;;;;;;;;;;;;22.33;37.86;102629.16;3121676;27;115720;-62
2021/03/03 07:25:33;;;;;;;;;;;;;;;22.36;37.84;102622.09;3121429;27;115684;-61
2021/03/03 07:27:04;;;;;;;;;;;;;;;22.37;37.88;102616.19;3124860;27;116242;-59
2021/03/03 07:28:35;;;;;;;;;;;;;;;22.39;37.51;102625.22;3122512;27;114025;-61
2021/03/03 07:30:10;;;;;;;;;;;;;;;22.41;37.78;102631.41;3122162;27;113836;-61
2021/03/03 07:31:42;;;;;;;;;;;;;;;22.45;37.70;102626.06;3122429;27;114462;-61
2021/03/03 07:33:13;;;;;;;;;;;;;;;22.46;37.48;102627.75;3123441;27;114773;-60
2021/03/03 07:34:46;;;;;;;;;;;;;;;22.47;37.63;102630.31;3109674;28;113910;-60
2021/03/03 07:36:17;;;;;;;;;;;;;;;22.50;37.58;102634.50;3116371;27;113773;-60
2021/03/03 07:37:51;;;;;;;;;;;;;;;22.52;37.52;102632.28;3109116;28;113826;-61
2021/03/03 07:39:24;;;;;;;;;;;;;;;22.52;37.49;102641.56;3093538;28;113795;-60
2021/03/03 07:40:55;;;;;;;;;;;;;;;22.54;37.49;102641.28;3101326;28;114180;-59
2021/03/03 07:42:28;;;;;;;;;;;;;;;22.55;37.37;102641.00;3103426;28;113863;-60
2021/03/03 07:44:02;;;;;;;;;;;;;;;22.56;37.43;102648.34;3104264;28;114236;-60
2021/03/03 07:45:40;;;;;;;;;;;;;;;22.56;37.56;102641.84;3103757;28;113812;-61
2021/03/03 07:47:14;;;;;;;;;;;;;;;22.56;37.75;102648.34;3118066;27;114021;-60
2021/03/03 07:48:49;;;;;;;;;;;;;;;22.56;37.63;102641.84;3113247;28;114104;-60